createdAt,value
2022-09-15T00:05:55.482Z,12.1
2022-09-15T00:11:54.574Z,12.1
2022-09-15T00:17:55.157Z,12.2
2022-09-15T00:23:54.982Z,12.1
2022-09-15T00:29:54.524Z,12.1
2022-09-15T00:35:54.447Z,12.1
2022-09-15T00:41:56.916Z,12.1
2022-09-15T00:47:54.558Z,12.1
2022-09-15T00:53:54.224Z,12
2022-09-15T00:59:54.705Z,12
2022-09-15T01:05:55.094Z,11.8
2022-09-15T01:11:55.641Z,11.8
2022-09-15T01:17:54.362Z,11.7
2022-09-15T01:23:53.939Z,11.7
2022-09-15T01:29:53.971Z,11.7
2022-09-15T01:35:54.263Z,11.7
2022-09-15T01:41:54.518Z,11.6
2022-09-15T01:47:57.000Z,11.7
2022-09-15T01:53:55.734Z,11.6
2022-09-15T01:59:54.619Z,11.7
2022-09-15T02:05:55.132Z,11.7
2022-09-15T02:11:54.137Z,11.7
2022-09-15T02:17:54.119Z,11.8
2022-09-15T02:23:54.350Z,11.7
2022-09-15T02:29:54.383Z,11.7
2022-09-15T02:35:54.321Z,11.7
2022-09-15T02:41:54.467Z,11.8
2022-09-15T02:47:54.710Z,11.8
2022-09-15T02:53:54.903Z,11.7
2022-09-15T02:59:54.378Z,11.7
2022-09-15T03:05:55.060Z,11.7
2022-09-15T03:11:54.668Z,11.6
2022-09-15T03:17:54.577Z,11.5
2022-09-15T03:23:54.979Z,11.5
2022-09-15T03:29:54.637Z,11.5
2022-09-15T03:35:54.753Z,11.5
2022-09-15T03:41:54.750Z,11.4
2022-09-15T03:47:54.868Z,11.4
2022-09-15T03:53:54.840Z,11.4
2022-09-15T03:59:54.314Z,11.3
2022-09-15T04:05:54.764Z,11.3
2022-09-15T04:11:54.627Z,11.2
2022-09-15T04:17:54.923Z,11.1
2022-09-15T04:23:54.402Z,11.1
2022-09-15T04:29:54.333Z,11
2022-09-15T04:35:54.595Z,11
2022-09-15T04:41:54.694Z,10.9
2022-09-15T04:47:55.042Z,11
2022-09-15T04:53:54.640Z,11
2022-09-15T04:59:54.464Z,10.9
2022-09-15T05:05:55.118Z,10.9
2022-09-15T05:11:54.842Z,10.9
2022-09-15T05:17:54.325Z,10.8
2022-09-15T05:23:54.608Z,10.8
2022-09-15T05:30:09.967Z,10.8
2022-09-15T05:35:54.885Z,10.9
2022-09-15T05:41:54.479Z,11
2022-09-15T05:47:55.154Z,11.1
2022-09-15T05:53:54.728Z,11.3
2022-09-15T05:59:54.956Z,11.3
2022-09-15T06:05:54.635Z,11.5
2022-09-15T06:11:54.479Z,11.5
2022-09-15T06:17:54.795Z,11.6
2022-09-15T06:23:54.756Z,11.7
2022-09-15T06:29:54.758Z,11.6
2022-09-15T06:35:54.353Z,11.6
2022-09-15T06:42:03.681Z,11.6
2022-09-15T06:48:13.321Z,11.6
2022-09-15T06:53:54.340Z,11.6
2022-09-15T06:59:54.616Z,11.6
2022-09-15T07:05:54.390Z,11.6
2022-09-15T07:11:54.665Z,11.7
2022-09-15T07:17:55.322Z,11.7
2022-09-15T07:23:54.557Z,11.8
2022-09-15T07:29:54.699Z,11.7
2022-09-15T07:35:55.438Z,11.8
2022-09-15T07:41:54.591Z,11.7
2022-09-15T07:47:54.529Z,11.6
2022-09-15T07:53:54.593Z,11.6
2022-09-15T07:59:55.029Z,11.7
2022-09-15T08:05:54.474Z,11.7
2022-09-15T08:11:55.757Z,11.8
2022-09-15T08:17:54.458Z,11.8
2022-09-15T08:23:54.570Z,11.7
2022-09-15T08:29:54.645Z,11.9
2022-09-15T08:35:54.647Z,11.8
2022-09-15T08:41:55.146Z,12
2022-09-15T08:47:54.262Z,12.1
2022-09-15T08:53:54.500Z,12
2022-09-15T08:59:55.289Z,11.8
2022-09-15T09:05:54.029Z,11.8
2022-09-15T09:11:54.772Z,11.9
2022-09-15T09:17:54.541Z,11.9
2022-09-15T09:23:54.202Z,11.9
2022-09-15T09:29:54.343Z,12.1
2022-09-15T09:35:54.187Z,12.1
2022-09-15T09:41:55.553Z,12
2022-09-15T09:47:57.292Z,11.9
2022-09-15T09:53:55.648Z,11.6
2022-09-15T09:59:54.903Z,11.5
2022-09-15T10:05:54.249Z,11.2
2022-09-15T10:11:55.512Z,11.5
2022-09-15T10:17:54.411Z,11.6
2022-09-15T10:23:54.594Z,11.4
2022-09-15T10:29:54.711Z,11.5
2022-09-15T10:35:54.275Z,11.3
2022-09-15T10:41:54.246Z,11.3
2022-09-15T10:47:54.052Z,11.5
2022-09-15T10:53:57.326Z,11.3
2022-09-15T10:59:54.200Z,11
2022-09-15T11:05:54.108Z,11.1
2022-09-15T11:11:54.273Z,11.1
2022-09-15T11:17:54.066Z,11.2
2022-09-15T11:23:54.193Z,11.2
2022-09-15T11:29:54.433Z,11
2022-09-15T11:35:54.964Z,10.9
2022-09-15T11:41:54.173Z,10.7
2022-09-15T11:47:54.296Z,10.9
2022-09-15T11:53:54.284Z,10.6
2022-09-15T11:59:54.088Z,10.6
2022-09-15T12:05:54.432Z,10.3
2022-09-15T12:11:55.151Z,10.7
2022-09-15T12:17:54.492Z,10.8
2022-09-15T12:23:54.119Z,10.7
2022-09-15T12:29:54.459Z,10.5
2022-09-15T12:35:54.347Z,10.5
2022-09-15T12:41:54.330Z,10.5
2022-09-15T12:47:54.373Z,10.2
2022-09-15T12:53:54.974Z,10.3
2022-09-15T12:59:54.781Z,10.4
2022-09-15T13:05:54.080Z,10.4
2022-09-15T13:11:54.072Z,10.4
2022-09-15T13:17:54.143Z,10.3
2022-09-15T13:23:54.347Z,10.3
2022-09-15T13:29:54.440Z,10.1
2022-09-15T13:35:54.131Z,10.1
2022-09-15T13:41:54.001Z,10.1
2022-09-15T13:47:54.052Z,9.9
2022-09-15T13:53:54.150Z,9.9
2022-09-15T13:59:54.765Z,10.3
2022-09-15T14:05:54.625Z,9.9
2022-09-15T14:11:54.710Z,10.2
2022-09-15T14:17:54.831Z,9.9
2022-09-15T14:23:54.448Z,10
2022-09-15T14:29:54.349Z,10.1
2022-09-15T14:35:54.444Z,10.2
2022-09-15T14:41:54.497Z,10.3
2022-09-15T14:47:54.191Z,10.1
2022-09-15T14:53:54.760Z,9.9
2022-09-15T14:59:54.318Z,9.8
2022-09-15T15:06:02.317Z,9.9
2022-09-15T15:11:54.386Z,10.1
2022-09-15T15:17:54.444Z,10
2022-09-15T15:23:54.640Z,10.1
2022-09-15T15:29:54.247Z,10.1
2022-09-15T15:35:54.731Z,10
2022-09-15T15:41:54.471Z,10
2022-09-15T15:47:54.362Z,9.9
2022-09-15T15:53:54.502Z,9.8
2022-09-15T15:59:54.921Z,9.8
2022-09-15T16:05:54.811Z,10.1
2022-09-15T16:11:54.763Z,10
2022-09-15T16:17:54.520Z,9.8
2022-09-15T16:23:54.439Z,9.6
2022-09-15T16:29:54.544Z,9.8
2022-09-15T16:35:54.401Z,9.6
2022-09-15T16:41:54.492Z,9.6
2022-09-15T16:47:54.367Z,9.7
2022-09-15T16:53:54.556Z,9.3
2022-09-15T16:59:55.663Z,9.4
2022-09-15T17:05:54.725Z,9.4
2022-09-15T17:11:54.712Z,9.2
2022-09-15T17:17:54.504Z,9.2
2022-09-15T17:23:54.601Z,9.3
2022-09-15T17:29:54.873Z,9.3
2022-09-15T17:35:54.358Z,9.3
2022-09-15T17:41:55.163Z,9.6
2022-09-15T17:47:54.597Z,9.6
2022-09-15T17:53:54.396Z,9.7
2022-09-15T17:59:54.729Z,9.8
2022-09-15T18:05:54.595Z,9.8
2022-09-15T18:17:54.587Z,9.7
2022-09-15T18:23:54.984Z,9.7
2022-09-15T18:29:54.580Z,9.6
2022-09-15T18:35:54.366Z,9.6
2022-09-15T18:41:54.833Z,9.6
2022-09-15T18:47:54.490Z,9.4
2022-09-15T18:53:54.715Z,9.4
2022-09-15T18:59:54.694Z,9.4
2022-09-15T19:05:54.359Z,9.3
2022-09-15T19:11:55.361Z,9.2
2022-09-15T19:17:55.576Z,9.3
2022-09-15T19:23:54.989Z,9.3
2022-09-15T19:29:54.743Z,9.1
2022-09-15T19:36:10.577Z,9
2022-09-15T19:41:54.750Z,9.1
2022-09-15T19:47:54.553Z,9.2
2022-09-15T19:53:55.130Z,9.2
2022-09-15T19:59:54.751Z,9.1
2022-09-15T20:05:54.550Z,9.1
2022-09-15T20:11:54.630Z,9
2022-09-15T20:17:54.660Z,9.1
2022-09-15T20:23:54.933Z,9.1
2022-09-15T20:29:55.199Z,9.1
2022-09-15T20:35:54.885Z,9.1
2022-09-15T20:41:54.423Z,9
2022-09-15T20:47:54.659Z,9
2022-09-15T20:53:54.789Z,9.1
2022-09-15T20:59:54.689Z,9
2022-09-15T21:05:55.051Z,9.2
2022-09-15T21:11:54.760Z,9.2
2022-09-15T21:17:55.182Z,9
2022-09-15T21:23:54.927Z,9
2022-09-15T21:29:54.451Z,9
2022-09-15T21:35:54.395Z,9.2
2022-09-15T21:41:55.078Z,9.2
2022-09-15T21:47:54.543Z,9.2
2022-09-15T21:53:54.753Z,9.3
2022-09-15T21:59:54.989Z,9.3
2022-09-15T22:05:54.318Z,9.2
2022-09-15T22:11:54.597Z,9.2
2022-09-15T22:17:54.592Z,9
2022-09-15T22:23:54.849Z,9
2022-09-15T22:29:54.553Z,9
2022-09-15T22:35:54.870Z,9.1
2022-09-15T22:41:55.546Z,9.1
2022-09-15T22:47:54.961Z,9.1
2022-09-15T22:53:55.568Z,9.2
2022-09-15T22:59:55.350Z,9.2
2022-09-15T23:05:55.269Z,9.2
2022-09-15T23:11:54.591Z,9.3
2022-09-15T23:17:55.681Z,9.3
2022-09-15T23:23:54.811Z,9.3
2022-09-15T23:29:55.703Z,9.3
2022-09-15T23:35:54.526Z,9.2
2022-09-15T23:41:55.231Z,9.3
2022-09-15T23:47:54.853Z,9.2
2022-09-15T23:53:55.619Z,9.1
2022-09-15T23:59:57.245Z,9.1
